createdAt,value
2022-11-25T00:01:06.152Z,2.30
2022-11-25T00:03:35.122Z,2.97
2022-11-25T00:06:11.882Z,3.10
2022-11-25T00:08:40.309Z,3.03
2022-11-25T00:11:09.070Z,2.40
2022-11-25T00:13:37.572Z,2.87
2022-11-25T00:16:07.183Z,2.60
2022-11-25T00:18:35.397Z,2.53
2022-11-25T00:21:08.165Z,3.93
2022-11-25T00:23:38.186Z,2.80
2022-11-25T00:26:10.436Z,2.97
2022-11-25T00:28:39.112Z,3.53
2022-11-25T00:31:08.539Z,2.73
2022-11-25T00:33:36.406Z,2.43
2022-11-25T00:36:05.270Z,2.80
2022-11-25T00:38:33.129Z,2.33
2022-11-25T00:41:19.987Z,2.93
2022-11-25T00:44:05.493Z,2.90
2022-11-25T00:46:33.299Z,2.73
2022-11-25T00:49:01.245Z,2.33
2022-11-25T00:51:29.042Z,2.90
2022-11-25T00:53:59.154Z,2.07
2022-11-25T00:56:30.264Z,2.10
2022-11-25T00:58:58.348Z,3.00
2022-11-25T01:01:26.424Z,2.10
2022-11-25T01:03:54.529Z,2.80
2022-11-25T01:06:23.017Z,2.23
2022-11-25T01:08:50.976Z,3.20
2022-11-25T01:11:21.422Z,2.27
2022-11-25T01:13:51.227Z,3.60
2022-11-25T01:16:20.705Z,2.13
2022-11-25T01:18:48.801Z,2.00
2022-11-25T01:21:18.801Z,2.17
2022-11-25T01:23:48.402Z,1.60
2022-11-25T01:26:18.972Z,2.23
2022-11-25T01:28:47.465Z,2.87
2022-11-25T01:31:21.429Z,2.60
2022-11-25T01:33:54.802Z,2.17
2022-11-25T01:36:22.888Z,2.33
2022-11-25T01:38:52.323Z,2.10
2022-11-25T01:41:20.790Z,1.90
2022-11-25T01:44:07.532Z,2.10
2022-11-25T01:47:00.467Z,2.33
2022-11-25T01:49:34.951Z,2.63
2022-11-25T01:52:07.328Z,1.73
2022-11-25T01:54:41.537Z,2.53
2022-11-25T01:57:13.079Z,2.20
2022-11-25T01:59:51.284Z,1.90
2022-11-25T02:02:22.428Z,2.33
2022-11-25T02:04:50.968Z,2.10
2022-11-25T02:07:26.459Z,2.07
2022-11-25T02:09:56.689Z,3.80
2022-11-25T02:12:24.734Z,2.20
2022-11-25T02:14:55.028Z,2.37
2022-11-25T02:17:25.526Z,2.10
2022-11-25T02:20:02.354Z,2.13
2022-11-25T02:22:42.865Z,2.40
2022-11-25T02:25:18.028Z,2.10
2022-11-25T02:27:50.158Z,2.17
2022-11-25T02:30:18.440Z,2.57
2022-11-25T02:32:47.229Z,2.10
2022-11-25T02:35:39.863Z,2.00
2022-11-25T02:38:10.362Z,1.90
2022-11-25T02:40:44.827Z,2.17
2022-11-25T02:43:13.340Z,2.07
2022-11-25T02:45:51.211Z,1.87
2022-11-25T02:48:19.087Z,2.03
2022-11-25T02:50:46.976Z,1.87
2022-11-25T02:53:15.211Z,2.10
2022-11-25T02:55:44.372Z,1.90
2022-11-25T02:58:12.603Z,2.30
2022-11-25T03:00:41.156Z,2.80
2022-11-25T03:03:09.224Z,4.10
2022-11-25T03:05:39.703Z,2.60
2022-11-25T03:08:07.942Z,3.10
2022-11-25T03:10:36.219Z,2.60
2022-11-25T03:13:05.726Z,2.50
2022-11-25T03:15:33.558Z,2.83
2022-11-25T03:18:01.568Z,2.10
2022-11-25T03:20:29.521Z,2.43
2022-11-25T03:22:57.494Z,1.90
2022-11-25T03:25:25.254Z,2.33
2022-11-25T03:27:53.083Z,2.30
2022-11-25T03:30:24.316Z,2.50
2022-11-25T03:32:52.194Z,2.50
2022-11-25T03:35:20.073Z,1.87
2022-11-25T03:37:48.088Z,2.67
2022-11-25T03:40:17.542Z,2.27
2022-11-25T03:42:45.742Z,2.07
2022-11-25T03:45:14.892Z,3.10
2022-11-25T03:47:45.273Z,2.60
2022-11-25T03:50:14.620Z,1.90
2022-11-25T03:52:42.452Z,2.43
2022-11-25T03:55:12.871Z,2.50
2022-11-25T03:57:40.760Z,3.07
2022-11-25T04:00:11.345Z,2.57
2022-11-25T04:02:39.202Z,4.03
2022-11-25T04:05:09.331Z,3.80
2022-11-25T04:07:37.254Z,1.97
2022-11-25T04:10:05.765Z,2.40
2022-11-25T04:12:47.422Z,3.30
2022-11-25T04:15:16.120Z,2.43
2022-11-25T04:17:44.479Z,2.10
2022-11-25T04:20:15.249Z,2.10
2022-11-25T04:22:43.490Z,2.37
2022-11-25T04:25:11.809Z,1.80
2022-11-25T04:27:39.707Z,1.73
2022-11-25T04:30:09.011Z,2.50
2022-11-25T04:32:38.288Z,2.93
2022-11-25T04:35:06.897Z,2.70
2022-11-25T04:37:36.113Z,2.57
2022-11-25T04:40:04.372Z,2.80
2022-11-25T04:42:36.545Z,3.60
2022-11-25T04:45:22.581Z,3.20
2022-11-25T04:47:51.324Z,3.00
2022-11-25T04:50:22.713Z,2.80
2022-11-25T04:52:52.057Z,3.00
2022-11-25T04:55:19.905Z,3.43
2022-11-25T04:57:47.718Z,3.40
2022-11-25T05:00:15.165Z,3.20
2022-11-25T05:02:43.008Z,3.27
2022-11-25T05:05:11.247Z,3.90
2022-11-25T05:07:39.294Z,3.10
2022-11-25T05:10:09.775Z,2.67
2022-11-25T05:12:37.953Z,3.47
2022-11-25T05:15:06.483Z,2.70
2022-11-25T05:17:34.738Z,2.20
2022-11-25T05:20:04.675Z,2.90
2022-11-25T05:22:33.741Z,2.77
2022-11-25T05:25:01.697Z,2.30
2022-11-25T05:27:30.840Z,2.50
2022-11-25T05:29:58.624Z,2.63
2022-11-25T05:32:26.426Z,2.90
2022-11-25T05:34:54.192Z,2.60
2022-11-25T05:37:24.575Z,2.53
2022-11-25T05:39:52.725Z,6.07
2022-11-25T05:42:20.549Z,2.73
2022-11-25T05:44:49.724Z,2.93
2022-11-25T05:47:17.582Z,2.27
2022-11-25T05:49:45.381Z,2.80
2022-11-25T05:52:13.178Z,2.50
2022-11-25T05:54:40.998Z,2.73
2022-11-25T05:57:08.834Z,2.10
2022-11-25T05:59:36.678Z,2.87
2022-11-25T06:02:05.941Z,3.37
2022-11-25T06:04:35.162Z,3.70
2022-11-25T06:07:03.145Z,2.53
2022-11-25T06:09:31.012Z,2.80
2022-11-25T06:11:58.840Z,2.30
2022-11-25T06:14:26.665Z,3.10
2022-11-25T06:16:54.479Z,2.33
2022-11-25T06:19:23.627Z,2.53
2022-11-25T06:21:51.506Z,2.90
2022-11-25T06:24:19.297Z,2.80
2022-11-25T06:26:47.052Z,2.60
2022-11-25T06:29:14.886Z,2.17
2022-11-25T06:31:42.762Z,2.87
2022-11-25T06:34:10.622Z,2.43
2022-11-25T06:36:39.746Z,2.97
2022-11-25T06:39:07.580Z,3.03
2022-11-25T06:41:35.425Z,2.50
2022-11-25T06:44:03.236Z,2.33
2022-11-25T06:46:31.310Z,2.50
2022-11-25T06:49:00.927Z,2.97
2022-11-25T06:51:28.939Z,2.07
2022-11-25T06:53:58.126Z,3.33
2022-11-25T06:56:27.791Z,3.00
2022-11-25T06:58:56.293Z,2.83
2022-11-25T07:01:25.846Z,2.70
2022-11-25T07:03:56.129Z,3.00
2022-11-25T07:06:24.069Z,2.53
2022-11-25T07:08:52.369Z,2.37
2022-11-25T07:11:25.184Z,3.07
2022-11-25T07:13:54.235Z,3.20
2022-11-25T07:16:22.258Z,3.10
2022-11-25T07:18:50.177Z,2.87
2022-11-25T07:21:20.177Z,2.50
2022-11-25T07:23:48.543Z,3.23
2022-11-25T07:26:18.721Z,2.60
2022-11-25T07:28:48.242Z,2.30
2022-11-25T07:31:23.693Z,3.23
2022-11-25T07:33:53.604Z,3.10
2022-11-25T07:36:21.655Z,3.50
2022-11-25T07:38:49.467Z,3.57
2022-11-25T07:41:19.413Z,3.73
2022-11-25T07:43:50.413Z,3.50
2022-11-25T07:46:25.047Z,4.30
2022-11-25T07:48:56.048Z,4.23
2022-11-25T07:51:25.500Z,4.90
2022-11-25T07:53:54.908Z,4.70
2022-11-25T07:56:23.025Z,4.27
2022-11-25T07:58:52.410Z,4.97
2022-11-25T08:01:20.901Z,4.33
2022-11-25T08:03:50.153Z,3.93
2022-11-25T08:06:20.344Z,3.93
2022-11-25T08:08:48.242Z,4.50
2022-11-25T08:11:20.313Z,4.60
2022-11-25T08:13:48.761Z,3.57
2022-11-25T08:16:19.662Z,3.37
2022-11-25T08:18:48.144Z,3.00
2022-11-25T08:21:17.458Z,3.23
2022-11-25T08:23:48.501Z,3.23
2022-11-25T08:26:18.991Z,3.43
2022-11-25T08:28:47.928Z,2.33
2022-11-25T08:31:19.307Z,2.50
2022-11-25T08:33:48.080Z,3.10
2022-11-25T08:36:16.522Z,2.23
2022-11-25T08:38:45.002Z,2.50
2022-11-25T08:41:13.654Z,2.30
2022-11-25T08:43:42.280Z,3.10
2022-11-25T08:46:12.118Z,2.60
2022-11-25T08:48:41.894Z,3.20
2022-11-25T08:51:12.557Z,1.73
2022-11-25T08:53:41.493Z,3.10
2022-11-25T08:56:10.274Z,2.43
2022-11-25T08:58:38.979Z,2.53
2022-11-25T09:01:21.057Z,1.90
2022-11-25T09:03:52.513Z,2.30
2022-11-25T09:06:43.261Z,2.13
2022-11-25T09:09:12.597Z,2.20
2022-11-25T09:11:42.149Z,2.70
2022-11-25T09:14:10.336Z,1.97
2022-11-25T09:16:38.298Z,2.27
2022-11-25T09:19:07.550Z,2.70
2022-11-25T09:21:35.379Z,1.90
2022-11-25T09:24:03.330Z,3.50
2022-11-25T09:26:35.528Z,2.47
2022-11-25T09:29:04.326Z,2.20
2022-11-25T09:31:32.636Z,2.37
2022-11-25T09:34:00.562Z,1.90
2022-11-25T09:36:30.736Z,2.47
2022-11-25T09:38:58.702Z,2.23
2022-11-25T09:42:01.868Z,1.77
2022-11-25T09:45:03.971Z,2.50
2022-11-25T09:47:46.635Z,3.40
2022-11-25T09:50:24.286Z,1.80
2022-11-25T09:53:07.012Z,2.10
2022-11-25T09:55:39.784Z,1.77
2022-11-25T09:58:19.750Z,2.13
2022-11-25T10:00:50.668Z,1.97
2022-11-25T10:03:33.589Z,1.80
2022-11-25T10:06:16.444Z,2.63
2022-11-25T10:08:53.445Z,2.00
2022-11-25T10:11:34.702Z,1.70
2022-11-25T10:14:08.418Z,3.03
2022-11-25T10:16:54.988Z,2.00
2022-11-25T10:19:34.374Z,2.00
2022-11-25T10:22:11.349Z,2.13
2022-11-25T10:24:41.508Z,1.83
2022-11-25T10:27:16.520Z,1.93
2022-11-25T10:29:51.930Z,1.93
2022-11-25T10:32:24.448Z,1.67
2022-11-25T10:34:55.308Z,1.70
2022-11-25T10:37:31.629Z,2.17
2022-11-25T10:40:00.831Z,1.83
2022-11-25T10:42:29.730Z,2.00
2022-11-25T10:44:57.805Z,2.80
2022-11-25T10:47:37.134Z,2.33
2022-11-25T10:50:15.447Z,1.80
2022-11-25T10:52:53.155Z,1.83
2022-11-25T10:55:27.723Z,2.10
2022-11-25T10:57:56.534Z,2.00
2022-11-25T11:00:32.773Z,3.10
2022-11-25T11:03:14.137Z,2.73
2022-11-25T11:05:47.026Z,2.40
2022-11-25T11:08:20.905Z,1.83
2022-11-25T11:11:11.625Z,2.17
2022-11-25T11:13:39.743Z,2.37
2022-11-25T11:16:24.340Z,2.93
2022-11-25T11:18:52.533Z,1.83
2022-11-25T11:21:26.002Z,2.47
2022-11-25T11:23:55.676Z,2.00
2022-11-25T11:26:28.374Z,2.23
2022-11-25T11:29:07.380Z,2.00
2022-11-25T11:31:41.738Z,2.37
2022-11-25T11:34:34.098Z,1.90
2022-11-25T11:37:32.312Z,2.70
2022-11-25T11:40:22.976Z,1.70
2022-11-25T11:43:10.705Z,2.83
2022-11-25T11:45:51.560Z,1.70
2022-11-25T11:48:26.565Z,1.60
2022-11-25T11:51:02.778Z,2.20
2022-11-25T11:53:35.257Z,2.00
2022-11-25T11:59:09.731Z,2.47
2022-11-25T12:01:49.430Z,1.93
2022-11-25T12:04:22.818Z,2.67
2022-11-25T12:07:01.371Z,2.00
2022-11-25T12:09:32.448Z,1.83
2022-11-25T12:12:05.074Z,2.10
2022-11-25T12:14:40.999Z,1.60
2022-11-25T12:17:15.644Z,2.13
2022-11-25T12:19:53.460Z,1.83
2022-11-25T12:22:26.510Z,2.40
2022-11-25T12:25:02.925Z,1.83
2022-11-25T12:27:35.730Z,2.73
2022-11-25T12:30:07.179Z,2.70
2022-11-25T12:32:49.544Z,2.03
2022-11-25T12:35:25.565Z,1.80
2022-11-25T12:38:03.170Z,2.10
2022-11-25T12:40:36.609Z,2.00
2022-11-25T12:43:25.098Z,3.13
2022-11-25T12:46:04.341Z,2.17
2022-11-25T12:48:32.801Z,2.13
2022-11-25T12:51:06.948Z,2.07
2022-11-25T12:53:40.420Z,2.27
2022-11-25T12:56:16.903Z,1.90
2022-11-25T12:58:54.767Z,2.20
2022-11-25T13:01:53.307Z,1.70
2022-11-25T13:04:37.537Z,2.00
2022-11-25T13:07:25.722Z,1.90
2022-11-25T13:10:26.142Z,1.47
2022-11-25T13:13:07.909Z,1.50
2022-11-25T13:15:41.033Z,1.97
2022-11-25T13:18:14.454Z,1.43
2022-11-25T13:20:47.994Z,1.50
2022-11-25T13:23:27.139Z,1.70
2022-11-25T13:26:44.955Z,1.60
2022-11-25T13:30:01.948Z,1.50
2022-11-25T13:32:41.157Z,1.77
2022-11-25T13:35:47.759Z,1.80
2022-11-25T13:38:39.277Z,1.73
2022-11-25T13:41:24.526Z,1.83
2022-11-25T13:44:01.682Z,2.50
2022-11-25T13:46:39.861Z,1.70
2022-11-25T13:49:24.135Z,2.20
2022-11-25T13:51:55.690Z,2.20
2022-11-25T13:54:32.235Z,2.07
2022-11-25T13:57:19.005Z,2.00
2022-11-25T14:00:01.820Z,1.83
2022-11-25T14:02:45.251Z,2.20
2022-11-25T14:05:42.041Z,2.17
2022-11-25T14:08:30.979Z,1.97
2022-11-25T14:11:30.668Z,2.00
2022-11-25T14:14:23.915Z,2.10
2022-11-25T14:17:11.612Z,2.20
2022-11-25T14:24:10.743Z,2.27
2022-11-25T14:26:56.176Z,2.43
2022-11-25T14:29:29.791Z,1.97
2022-11-25T14:32:02.976Z,1.87
2022-11-25T14:34:35.141Z,2.30
2022-11-25T14:37:11.621Z,2.50
2022-11-25T14:39:48.092Z,2.33
2022-11-25T14:42:18.565Z,1.80
2022-11-25T14:44:52.555Z,2.20
2022-11-25T14:47:23.980Z,2.43
2022-11-25T14:50:18.836Z,3.57
2022-11-25T14:52:43.823Z,3.03
2022-11-25T14:55:13.759Z,2.93
2022-11-25T14:57:45.830Z,2.83
2022-11-25T15:00:16.353Z,2.80
2022-11-25T15:02:56.583Z,2.83
2022-11-25T15:05:27.184Z,3.03
2022-11-25T15:07:59.564Z,2.80
2022-11-25T15:10:34.269Z,3.07
2022-11-25T15:13:10.453Z,2.80
2022-11-25T15:15:38.507Z,2.10
2022-11-25T15:18:07.795Z,2.80
2022-11-25T15:20:35.994Z,3.20
2022-11-25T15:23:04.157Z,2.60
2022-11-25T15:25:33.446Z,2.57
2022-11-25T15:28:01.318Z,3.13
2022-11-25T15:30:30.310Z,3.03
2022-11-25T15:32:58.713Z,3.83
2022-11-25T15:35:28.486Z,2.97
2022-11-25T15:37:56.733Z,3.13
2022-11-25T15:40:37.523Z,3.17
2022-11-25T15:43:07.090Z,3.60
2022-11-25T15:45:43.626Z,4.37
2022-11-25T15:48:18.554Z,3.10
2022-11-25T15:50:46.531Z,3.43
2022-11-25T15:53:30.177Z,3.33
2022-11-25T15:56:02.998Z,3.50
2022-11-25T15:58:31.139Z,3.50
2022-11-25T16:01:04.122Z,4.60
2022-11-25T16:03:32.950Z,3.70
2022-11-25T16:06:02.088Z,4.73
2022-11-25T16:08:37.327Z,3.80
2022-11-25T16:11:18.326Z,4.50
2022-11-25T16:13:47.247Z,4.30
2022-11-25T16:16:20.717Z,4.60
2022-11-25T16:18:57.073Z,4.00
2022-11-25T16:21:27.233Z,5.03
2022-11-25T16:23:58.593Z,3.90
2022-11-25T16:26:31.752Z,4.70
2022-11-25T16:29:01.591Z,4.13
2022-11-25T16:31:29.769Z,4.33
2022-11-25T16:34:01.525Z,5.00
2022-11-25T16:36:29.327Z,4.63
2022-11-25T16:38:57.627Z,4.77
2022-11-25T16:41:27.857Z,4.90
2022-11-25T16:43:58.382Z,4.50
2022-11-25T16:46:27.790Z,5.93
2022-11-25T16:48:55.675Z,5.00
2022-11-25T16:51:25.399Z,5.47
2022-11-25T16:53:53.238Z,5.53
2022-11-25T16:56:25.542Z,5.47
2022-11-25T16:58:56.425Z,5.47
2022-11-25T17:01:27.251Z,7.13
2022-11-25T17:03:55.244Z,5.40
2022-11-25T17:06:24.803Z,5.97
2022-11-25T17:08:53.312Z,5.70
2022-11-25T17:11:24.972Z,6.43
2022-11-25T17:13:55.223Z,7.60
2022-11-25T17:16:25.190Z,7.07
2022-11-25T17:18:54.636Z,8.23
2022-11-25T17:21:26.712Z,7.40
2022-11-25T17:23:55.573Z,10.50
2022-11-25T17:26:26.689Z,8.97
2022-11-25T17:28:59.035Z,6.53
2022-11-25T17:31:28.997Z,6.23
2022-11-25T17:33:57.255Z,6.60
2022-11-25T17:36:26.220Z,7.37
2022-11-25T17:38:54.098Z,6.50
2022-11-25T17:41:25.256Z,5.90
2022-11-25T17:43:53.633Z,6.37
2022-11-25T17:46:24.711Z,7.70
2022-11-25T17:48:52.588Z,6.30
2022-11-25T17:51:20.388Z,5.33
2022-11-25T17:53:48.530Z,6.87
2022-11-25T17:56:22.011Z,6.30
2022-11-25T17:58:50.015Z,6.27
2022-11-25T18:01:18.018Z,6.70
2022-11-25T18:03:49.336Z,6.90
2022-11-25T18:06:17.183Z,6.50
2022-11-25T18:08:45.042Z,7.60
2022-11-25T18:11:16.716Z,6.70
2022-11-25T18:13:46.793Z,7.63
2022-11-25T18:16:18.936Z,8.37
2022-11-25T18:18:48.075Z,7.23
2022-11-25T18:21:16.033Z,6.90
2022-11-25T18:23:44.008Z,7.73
2022-11-25T18:26:13.031Z,6.53
2022-11-25T18:28:40.872Z,7.10
2022-11-25T18:31:08.787Z,7.60
2022-11-25T18:33:36.684Z,6.73
2022-11-25T18:36:06.611Z,7.73
2022-11-25T18:38:34.448Z,7.00
2022-11-25T18:41:02.757Z,6.90
2022-11-25T18:43:33.242Z,8.23
2022-11-25T18:46:01.497Z,6.87
2022-11-25T18:48:29.460Z,7.90
2022-11-25T18:50:57.382Z,7.67
2022-11-25T18:53:26.644Z,7.67
2022-11-25T18:59:36.173Z,6.90
2022-11-25T19:02:04.260Z,7.77
2022-11-25T19:04:32.240Z,8.20
2022-11-25T19:07:00.063Z,8.50
2022-11-25T19:09:29.223Z,7.10
2022-11-25T19:11:57.098Z,8.97
2022-11-25T19:14:31.364Z,7.07
2022-11-25T19:17:02.138Z,7.67
2022-11-25T19:19:30.513Z,8.23
2022-11-25T19:22:01.226Z,8.30
2022-11-25T19:24:30.820Z,7.57
2022-11-25T19:26:58.754Z,7.43
2022-11-25T19:29:35.463Z,8.30
2022-11-25T19:32:15.684Z,7.93
2022-11-25T19:34:47.000Z,7.57
2022-11-25T19:37:19.871Z,7.37
2022-11-25T19:39:50.146Z,7.00
2022-11-25T19:42:18.410Z,6.23
2022-11-25T19:44:47.182Z,7.20
2022-11-25T19:47:19.524Z,7.27
2022-11-25T19:49:47.875Z,7.00
2022-11-25T19:52:17.489Z,7.80
2022-11-25T19:54:45.350Z,6.90
2022-11-25T19:57:17.938Z,7.20
2022-11-25T19:59:46.112Z,7.70
2022-11-25T20:02:15.922Z,9.20
2022-11-25T20:04:46.546Z,8.03
2022-11-25T20:07:17.796Z,8.93
2022-11-25T20:09:46.159Z,8.03
2022-11-25T20:12:21.336Z,8.77
2022-11-25T20:14:50.104Z,8.73
2022-11-25T20:17:25.705Z,8.40
2022-11-25T20:19:54.531Z,8.97
2022-11-25T20:22:27.515Z,7.33
2022-11-25T20:24:56.481Z,8.73
2022-11-25T20:27:28.646Z,8.20
2022-11-25T20:29:57.041Z,10.13
2022-11-25T20:32:28.896Z,9.33
2022-11-25T20:34:56.981Z,7.73
2022-11-25T20:37:25.596Z,9.60
2022-11-25T20:39:54.962Z,9.40
2022-11-25T20:42:24.129Z,8.43
2022-11-25T20:44:57.502Z,7.83
2022-11-25T20:47:37.825Z,8.10
2022-11-25T20:50:06.727Z,8.70
2022-11-25T20:52:39.425Z,8.53
2022-11-25T20:55:15.770Z,8.23
2022-11-25T20:57:44.108Z,7.93
2022-11-25T21:00:19.846Z,8.60
2022-11-25T21:02:48.231Z,8.80
2022-11-25T21:05:16.832Z,8.30
2022-11-25T21:07:44.918Z,10.17
2022-11-25T21:10:23.644Z,9.80
2022-11-25T21:12:51.543Z,8.73
2022-11-25T21:15:22.756Z,9.87
2022-11-25T21:17:50.816Z,9.70
2022-11-25T21:20:20.111Z,9.77
2022-11-25T21:22:50.874Z,8.97
2022-11-25T21:25:21.990Z,11.07
2022-11-25T21:27:50.982Z,13.10
2022-11-25T21:30:22.238Z,10.00
2022-11-25T21:32:52.803Z,9.97
2022-11-25T21:35:20.721Z,9.07
2022-11-25T21:37:48.646Z,9.90
2022-11-25T21:40:34.082Z,8.57
2022-11-25T21:43:02.118Z,9.90
2022-11-25T21:45:31.281Z,10.57
2022-11-25T21:47:59.220Z,9.73
2022-11-25T21:50:29.738Z,8.87
2022-11-25T21:52:57.651Z,9.47
2022-11-25T21:55:26.139Z,9.50
2022-11-25T21:57:53.953Z,9.33
2022-11-25T22:00:24.297Z,9.30
2022-11-25T22:02:53.979Z,9.20
2022-11-25T22:05:25.445Z,9.00
2022-11-25T22:07:54.722Z,10.30
2022-11-25T22:10:23.484Z,10.10
2022-11-25T22:12:51.573Z,8.33
2022-11-25T22:15:22.119Z,8.97
2022-11-25T22:17:54.202Z,9.90
2022-11-25T22:20:28.841Z,9.10
2022-11-25T22:22:56.800Z,9.57
2022-11-25T22:25:26.395Z,10.13
2022-11-25T22:27:54.506Z,9.60
2022-11-25T22:30:23.781Z,8.40
2022-11-25T22:33:00.143Z,10.50
2022-11-25T22:35:29.493Z,9.20
2022-11-25T22:37:57.371Z,10.03
2022-11-25T22:40:25.716Z,10.30
2022-11-25T22:42:55.819Z,9.97
2022-11-25T22:45:30.269Z,11.17
2022-11-25T22:47:59.208Z,9.57
2022-11-25T22:50:30.540Z,10.40
2022-11-25T22:52:59.472Z,10.30
2022-11-25T22:55:29.240Z,9.77
2022-11-25T22:57:58.872Z,10.50
2022-11-25T23:00:28.354Z,10.60
2022-11-25T23:02:58.769Z,9.27
2022-11-25T23:05:33.106Z,12.60
2022-11-25T23:08:02.186Z,11.40
2022-11-25T23:10:32.134Z,11.03
2022-11-25T23:13:00.055Z,11.17
2022-11-25T23:15:28.313Z,12.13
2022-11-25T23:17:58.554Z,11.40
2022-11-25T23:20:31.778Z,11.00
2022-11-25T23:23:02.785Z,11.90
2022-11-25T23:25:30.668Z,10.77
2022-11-25T23:27:58.455Z,11.10
2022-11-25T23:30:26.465Z,13.30
2022-11-25T23:32:55.018Z,12.53
2022-11-25T23:35:29.999Z,12.90
2022-11-25T23:37:59.667Z,11.63
2022-11-25T23:40:28.374Z,11.03
2022-11-25T23:42:57.214Z,11.30
2022-11-25T23:45:27.869Z,11.83
2022-11-25T23:47:57.338Z,11.47
2022-11-25T23:50:29.266Z,11.60
2022-11-25T23:53:01.987Z,11.73
2022-11-25T23:55:33.044Z,10.03
2022-11-25T23:58:02.938Z,11.50
